createdAt,value
2018-09-15T00:03:20.447Z,23.00
2018-09-15T00:08:25.372Z,22.90
2018-09-15T00:13:30.458Z,22.70
2018-09-15T00:18:35.402Z,22.80
2018-09-15T00:23:40.340Z,22.70
2018-09-15T00:28:45.309Z,22.70
2018-09-15T00:33:50.330Z,22.70
2018-09-15T00:38:55.211Z,22.70
2018-09-15T00:44:00.141Z,22.80
2018-09-15T00:49:05.235Z,22.80
2018-09-15T00:54:10.125Z,22.80
2018-09-15T00:59:15.220Z,22.90
2018-09-15T01:04:20.267Z,22.90
2018-09-15T01:09:25.313Z,22.90
2018-09-15T01:14:30.540Z,23.00
2018-09-15T01:19:36.590Z,23.00
2018-09-15T01:24:42.539Z,23.00
2018-09-15T01:29:47.622Z,22.90
2018-09-15T01:34:52.533Z,23.00
2018-09-15T01:39:57.505Z,23.00
2018-09-15T01:45:02.455Z,23.00
2018-09-15T01:50:07.585Z,23.10
2018-09-15T01:55:12.530Z,23.00
2018-09-15T02:00:17.642Z,22.80
2018-09-15T02:05:22.744Z,22.80
2018-09-15T02:10:27.735Z,22.90
2018-09-15T02:15:32.725Z,22.80
2018-09-15T02:20:37.676Z,22.80
2018-09-15T02:25:42.619Z,22.50
2018-09-15T02:30:47.600Z,22.40
2018-09-15T02:35:52.721Z,22.30
2018-09-15T02:40:57.866Z,22.20
2018-09-15T02:46:02.769Z,22.10
2018-09-15T02:51:07.788Z,22.10
2018-09-15T02:56:12.723Z,22.00
2018-09-15T03:01:17.652Z,21.90
2018-09-15T03:06:22.549Z,21.90
2018-09-15T03:11:27.454Z,22.10
2018-09-15T03:16:32.521Z,22.10
2018-09-15T03:21:37.484Z,22.10
2018-09-15T03:26:43.028Z,22.10
2018-09-15T03:31:48.026Z,22.10
2018-09-15T03:36:54.285Z,22.10
2018-09-15T03:41:59.347Z,22.20
2018-09-15T03:47:04.349Z,22.40
2018-09-15T03:52:09.377Z,22.40
2018-09-15T03:57:14.349Z,22.40
2018-09-15T04:02:19.891Z,22.40
2018-09-15T04:07:24.837Z,22.50
2018-09-15T04:12:29.720Z,22.50
2018-09-15T04:17:34.772Z,22.60
2018-09-15T04:22:39.704Z,22.70
2018-09-15T04:27:44.861Z,22.60
2018-09-15T04:32:49.896Z,22.50
2018-09-15T04:37:54.827Z,22.60
2018-09-15T04:43:00.104Z,22.50
2018-09-15T04:48:05.589Z,22.40
2018-09-15T04:53:10.566Z,22.50
2018-09-15T04:58:17.122Z,22.60
2018-09-15T05:03:22.094Z,22.60
2018-09-15T05:08:27.457Z,22.70
2018-09-15T05:13:32.490Z,22.60
2018-09-15T05:18:37.541Z,22.60
2018-09-15T05:23:42.630Z,22.70
2018-09-15T05:28:47.784Z,22.80
2018-09-15T05:33:52.782Z,22.90
2018-09-15T05:38:58.271Z,23.00
2018-09-15T05:44:03.203Z,23.00
2018-09-15T05:49:08.283Z,23.00
2018-09-15T05:54:13.312Z,23.00
2018-09-15T05:59:18.315Z,23.10
2018-09-15T06:04:23.548Z,23.10
2018-09-15T06:09:28.483Z,23.00
2018-09-15T06:14:33.428Z,22.90
2018-09-15T06:19:38.533Z,22.80
2018-09-15T06:24:43.522Z,22.90
2018-09-15T06:29:48.412Z,23.10
2018-09-15T06:34:53.611Z,23.20
2018-09-15T06:39:58.512Z,23.10
2018-09-15T06:45:03.861Z,23.20
2018-09-15T06:50:08.944Z,23.20
2018-09-15T06:55:14.676Z,23.40
2018-09-15T07:00:19.547Z,23.60
2018-09-15T07:05:24.516Z,23.80
2018-09-15T07:10:29.544Z,24.00
2018-09-15T07:15:35.473Z,24.10
2018-09-15T07:20:40.369Z,24.30
2018-09-15T07:25:45.446Z,24.30
2018-09-15T07:30:51.189Z,24.40
2018-09-15T07:35:56.127Z,24.70
2018-09-15T07:41:01.821Z,24.70
2018-09-15T07:46:06.893Z,24.80
2018-09-15T07:51:11.846Z,24.80
2018-09-15T07:56:17.814Z,25.00
2018-09-15T08:01:22.793Z,24.90
2018-09-15T08:06:27.797Z,25.10
2018-09-15T08:11:32.935Z,25.40
2018-09-15T08:16:37.929Z,25.50
2018-09-15T08:21:42.937Z,25.70
2018-09-15T08:26:48.075Z,25.80
2018-09-15T08:31:53.076Z,25.90
2018-09-15T08:36:58.070Z,26.10
2018-09-15T08:42:03.007Z,26.10
2018-09-15T08:47:08.081Z,26.30
2018-09-15T08:52:13.047Z,26.50
2018-09-15T08:57:18.203Z,26.40
2018-09-15T09:02:24.172Z,26.50
2018-09-15T09:07:29.213Z,26.60
2018-09-15T09:12:34.318Z,26.60
2018-09-15T09:17:39.575Z,26.80
2018-09-15T09:22:50.899Z,26.70
2018-09-15T09:27:59.445Z,26.80
2018-09-15T09:33:04.588Z,26.80
2018-09-15T09:38:09.689Z,26.90
2018-09-15T09:43:14.596Z,27.10
2018-09-15T09:48:20.031Z,27.70
2018-09-15T09:53:25.147Z,28.10
2018-09-15T09:58:30.150Z,28.10
2018-09-15T10:03:35.227Z,27.60
2018-09-15T10:08:40.212Z,27.10
2018-09-15T10:13:45.040Z,27.10
2018-09-15T10:18:50.011Z,27.20
2018-09-15T10:23:55.053Z,27.30
2018-09-15T10:28:59.993Z,27.40
2018-09-15T10:34:04.936Z,28.20
2018-09-15T10:39:10.670Z,28.70
2018-09-15T10:44:15.636Z,29.20
2018-09-15T10:49:21.257Z,29.50
2018-09-15T10:54:26.278Z,29.70
2018-09-15T10:59:32.530Z,29.80
2018-09-15T11:04:37.730Z,29.50
2018-09-15T11:09:42.975Z,29.80
2018-09-15T11:14:49.322Z,29.60
2018-09-15T11:19:54.431Z,29.80
2018-09-15T11:24:59.463Z,30.30
2018-09-15T11:30:04.377Z,29.90
2018-09-15T11:35:09.370Z,28.80
2018-09-15T11:40:14.450Z,28.30
2018-09-15T11:45:19.401Z,28.00
2018-09-15T11:50:24.230Z,28.00
2018-09-15T11:55:29.191Z,28.00
2018-09-15T12:00:36.726Z,27.70
2018-09-15T12:05:41.577Z,27.70
2018-09-15T12:10:47.467Z,27.70
2018-09-15T12:15:52.508Z,27.50
2018-09-15T12:20:57.521Z,27.90
2018-09-15T12:26:03.181Z,28.00
2018-09-15T12:31:09.139Z,28.00
2018-09-15T12:36:14.090Z,27.90
2018-09-15T12:41:19.296Z,28.00
2018-09-15T12:46:24.050Z,27.80
2018-09-15T12:51:27.459Z,27.80
2018-09-15T12:56:30.896Z,27.70
2018-09-15T13:01:34.338Z,27.50
2018-09-15T13:06:37.725Z,27.50
2018-09-15T13:11:42.044Z,27.20
2018-09-15T13:16:45.534Z,27.10
2018-09-15T13:21:48.954Z,27.00
2018-09-15T13:26:52.423Z,27.00
2018-09-15T13:31:55.939Z,27.10
2018-09-15T13:36:59.858Z,27.00
2018-09-15T13:42:03.299Z,26.70
2018-09-15T13:47:06.591Z,26.60
2018-09-15T13:52:10.069Z,26.50
2018-09-15T13:57:13.300Z,26.40
2018-09-15T14:02:16.592Z,26.30
2018-09-15T14:07:19.836Z,26.20
2018-09-15T14:12:23.916Z,26.10
2018-09-15T14:17:27.389Z,26.20
2018-09-15T14:22:30.824Z,26.10
2018-09-15T14:27:34.779Z,25.90
2018-09-15T14:32:37.987Z,25.90
2018-09-15T14:37:47.979Z,25.80
2018-09-15T14:42:51.284Z,25.90
2018-09-15T14:47:55.379Z,26.10
2018-09-15T14:52:58.782Z,25.90
2018-09-15T14:58:02.040Z,25.80
2018-09-15T15:03:07.454Z,25.80
2018-09-15T15:08:10.903Z,25.70
2018-09-15T15:13:15.260Z,25.60
2018-09-15T15:18:18.599Z,25.70
2018-09-15T15:23:21.875Z,25.70
2018-09-15T15:28:25.281Z,25.70
2018-09-15T15:33:28.524Z,25.60
2018-09-15T15:38:32.044Z,25.50
2018-09-15T15:43:35.479Z,25.40
2018-09-15T15:48:38.911Z,25.50
2018-09-15T15:53:42.294Z,25.50
2018-09-15T15:58:46.279Z,25.40
2018-09-15T16:03:50.229Z,25.40
2018-09-15T16:08:53.606Z,25.50
2018-09-15T16:13:56.966Z,25.40
2018-09-15T16:19:00.398Z,25.50
2018-09-15T16:24:04.148Z,25.50
2018-09-15T16:29:07.621Z,25.30
2018-09-15T16:34:10.950Z,25.30
2018-09-15T16:39:14.362Z,25.20
2018-09-15T16:44:17.781Z,25.20
2018-09-15T16:49:21.079Z,25.00
2018-09-15T16:54:24.404Z,25.10
2018-09-15T16:59:28.594Z,25.00
2018-09-15T17:04:32.154Z,25.10
2018-09-15T17:09:35.701Z,25.10
2018-09-15T17:14:39.563Z,24.90
2018-09-15T17:19:42.995Z,25.00
2018-09-15T17:24:46.399Z,25.00
2018-09-15T17:29:49.835Z,24.80
2018-09-15T17:34:53.197Z,24.80
2018-09-15T17:39:58.662Z,24.70
2018-09-15T17:45:01.987Z,24.80
2018-09-15T17:50:05.511Z,24.60
2018-09-15T17:55:08.789Z,24.50
2018-09-15T18:00:12.160Z,24.10
2018-09-15T18:05:15.744Z,23.90
2018-09-15T18:10:19.220Z,23.80
2018-09-15T18:15:22.739Z,23.90
2018-09-15T18:20:26.534Z,23.60
2018-09-15T18:25:29.961Z,23.70
2018-09-15T18:30:33.510Z,23.80
2018-09-15T18:35:36.924Z,23.50
2018-09-15T18:40:41.271Z,23.60
2018-09-15T18:45:44.653Z,23.50
2018-09-15T18:50:48.030Z,23.80
2018-09-15T18:55:51.934Z,23.70
2018-09-15T19:00:56.308Z,23.90
2018-09-15T19:06:00.476Z,23.80
2018-09-15T19:11:04.534Z,23.60
2018-09-15T19:16:08.369Z,23.50
2018-09-15T19:21:12.422Z,23.40
2018-09-15T19:26:16.833Z,23.50
2018-09-15T19:31:21.047Z,23.50
2018-09-15T19:36:24.931Z,23.40
2018-09-15T19:41:29.136Z,23.60
2018-09-15T19:46:33.493Z,23.80
2018-09-15T19:51:36.763Z,23.60
2018-09-15T19:56:40.037Z,23.50
2018-09-15T20:01:44.043Z,23.50
2018-09-15T20:06:47.432Z,23.40
2018-09-15T20:11:53.540Z,23.30
2018-09-15T20:16:55.427Z,23.40
2018-09-15T20:21:57.334Z,23.30
2018-09-15T20:27:01.536Z,23.50
2018-09-15T20:32:06.033Z,23.20
2018-09-15T20:37:09.357Z,23.20
2018-09-15T20:42:12.644Z,23.10
2018-09-15T20:47:16.512Z,23.10
2018-09-15T20:52:20.113Z,23.30
2018-09-15T20:57:24.635Z,23.30
2018-09-15T21:02:28.775Z,23.20
2018-09-15T21:07:32.659Z,23.00
2018-09-15T21:12:37.301Z,23.20
2018-09-15T21:17:41.736Z,23.00
2018-09-15T21:22:45.093Z,23.00
2018-09-15T21:27:49.495Z,22.90
2018-09-15T21:32:54.127Z,23.00
2018-09-15T21:37:57.522Z,23.10
2018-09-15T21:43:01.344Z,23.20
2018-09-15T21:48:05.823Z,23.20
2018-09-15T21:53:09.202Z,23.30
2018-09-15T21:58:13.540Z,23.10
2018-09-15T22:03:21.957Z,23.20
2018-09-15T22:08:25.242Z,23.10
2018-09-15T22:13:28.512Z,23.30
2018-09-15T22:18:31.987Z,23.20
2018-09-15T22:23:35.343Z,23.00
2018-09-15T22:28:38.608Z,22.90
2018-09-15T22:33:42.074Z,22.90
2018-09-15T22:38:45.535Z,22.90
2018-09-15T22:43:48.933Z,22.80
2018-09-15T22:48:52.336Z,22.70
2018-09-15T22:53:55.793Z,22.70
2018-09-15T22:58:59.292Z,22.60
2018-09-15T23:04:07.920Z,22.40
2018-09-15T23:09:11.990Z,22.10
2018-09-15T23:14:15.238Z,21.90
2018-09-15T23:19:18.613Z,21.80
2018-09-15T23:24:21.898Z,21.80
2018-09-15T23:29:25.323Z,21.70
2018-09-15T23:34:28.745Z,21.70
2018-09-15T23:39:32.187Z,21.70
2018-09-15T23:44:35.472Z,21.70
2018-09-15T23:49:38.721Z,21.70
2018-09-15T23:54:42.071Z,21.70
2018-09-15T23:59:45.322Z,21.90
